createdAt,value
2022-09-12T00:00:05.061Z,62.50
2022-09-12T00:02:34.283Z,62.40
2022-09-12T00:05:02.098Z,62.30
2022-09-12T00:07:29.948Z,62.30
2022-09-12T00:09:57.895Z,62.30
2022-09-12T00:12:25.734Z,62.30
2022-09-12T00:14:53.524Z,62.40
2022-09-12T00:17:21.324Z,62.30
2022-09-12T00:19:50.761Z,62.30
2022-09-12T00:22:18.559Z,62.10
2022-09-12T00:24:46.531Z,62.20
2022-09-12T00:27:14.279Z,62.00
2022-09-12T00:29:42.532Z,62.10
2022-09-12T00:32:10.382Z,61.90
2022-09-12T00:34:38.573Z,62.00
2022-09-12T00:37:07.743Z,61.90
2022-09-12T00:39:35.514Z,61.90
2022-09-12T00:42:03.542Z,61.80
2022-09-12T00:44:50.240Z,61.70
2022-09-12T00:47:23.235Z,61.70
2022-09-12T00:49:54.280Z,61.60
2022-09-12T00:52:27.600Z,61.70
2022-09-12T00:55:01.993Z,61.50
2022-09-12T00:57:36.521Z,61.60
2022-09-12T01:00:12.484Z,61.60
2022-09-12T01:02:40.432Z,61.70
2022-09-12T01:05:09.407Z,61.50
2022-09-12T01:07:40.357Z,61.50
2022-09-12T01:10:09.931Z,61.40
2022-09-12T01:12:41.139Z,61.40
2022-09-12T01:15:09.698Z,61.40
2022-09-12T01:17:49.998Z,61.40
2022-09-12T01:20:38.948Z,61.30
2022-09-12T01:23:38.888Z,61.30
2022-09-12T01:26:25.560Z,61.30
2022-09-12T01:29:15.151Z,61.40
2022-09-12T01:31:50.962Z,61.20
2022-09-12T01:34:28.061Z,61.20
2022-09-12T01:37:06.934Z,61.30
2022-09-12T01:39:42.235Z,61.40
2022-09-12T01:42:21.788Z,61.30
2022-09-12T01:44:55.867Z,61.40
2022-09-12T01:47:32.357Z,61.30
2022-09-12T01:50:03.984Z,61.20
2022-09-12T01:52:39.803Z,61.30
2022-09-12T01:55:12.762Z,61.30
2022-09-12T01:57:45.421Z,61.40
2022-09-12T02:00:14.244Z,61.30
2022-09-12T02:02:49.883Z,61.30
2022-09-12T02:05:21.880Z,61.30
2022-09-12T02:07:52.868Z,61.30
2022-09-12T02:10:24.049Z,61.50
2022-09-12T02:12:56.254Z,61.40
2022-09-12T02:15:30.295Z,61.30
2022-09-12T02:18:05.133Z,61.30
2022-09-12T02:20:48.026Z,61.20
2022-09-12T02:23:21.515Z,61.20
2022-09-12T02:25:53.321Z,61.20
2022-09-12T02:28:26.321Z,61.40
2022-09-12T02:31:08.913Z,61.20
2022-09-12T02:33:46.693Z,61.20
2022-09-12T02:36:23.388Z,61.20
2022-09-12T02:38:51.895Z,61.30
2022-09-12T02:41:21.611Z,61.30
2022-09-12T02:43:51.247Z,61.30
2022-09-12T02:46:23.217Z,61.30
2022-09-12T02:48:52.503Z,61.30
2022-09-12T02:51:23.679Z,61.20
2022-09-12T02:53:52.316Z,61.20
2022-09-12T02:56:25.783Z,61.30
2022-09-12T02:58:54.735Z,61.30
2022-09-12T03:01:40.173Z,61.30
2022-09-12T03:04:28.101Z,61.30
2022-09-12T03:07:08.635Z,61.30
2022-09-12T03:09:43.982Z,61.20
2022-09-12T03:12:21.368Z,61.30
2022-09-12T03:15:09.011Z,62.00
2022-09-12T03:17:47.710Z,61.40
2022-09-12T03:20:23.221Z,62.00
2022-09-12T03:22:55.720Z,61.30
2022-09-12T03:25:29.509Z,61.30
2022-09-12T03:28:00.055Z,61.20
2022-09-12T03:30:28.145Z,61.30
2022-09-12T03:32:56.252Z,61.90
2022-09-12T03:35:26.465Z,61.30
2022-09-12T03:37:54.378Z,62.00
2022-09-12T03:40:22.404Z,61.40
2022-09-12T03:42:50.167Z,61.40
2022-09-12T03:45:18.020Z,61.40
2022-09-12T03:47:45.811Z,61.50
2022-09-12T03:50:13.536Z,61.40
2022-09-12T03:52:42.610Z,61.30
2022-09-12T03:55:10.958Z,61.40
2022-09-12T03:57:38.704Z,61.50
2022-09-12T04:00:08.508Z,61.30
2022-09-12T04:02:36.502Z,61.30
2022-09-12T04:05:04.908Z,61.40
2022-09-12T04:07:32.693Z,61.30
2022-09-12T04:10:01.800Z,61.40
2022-09-12T04:12:30.584Z,61.40
2022-09-12T04:14:58.602Z,61.30
2022-09-12T04:17:26.424Z,61.30
2022-09-12T04:19:54.151Z,61.30
2022-09-12T04:22:21.896Z,61.30
2022-09-12T04:24:49.651Z,61.40
2022-09-12T04:27:18.873Z,61.40
2022-09-12T04:29:46.883Z,62.10
2022-09-12T04:32:15.027Z,61.20
2022-09-12T04:34:42.739Z,61.40
2022-09-12T04:37:11.639Z,61.50
2022-09-12T04:39:39.567Z,61.50
2022-09-12T04:42:07.623Z,61.60
2022-09-12T04:44:37.456Z,61.60
2022-09-12T04:47:05.443Z,61.60
2022-09-12T04:49:33.356Z,61.60
2022-09-12T04:52:01.120Z,61.60
2022-09-12T04:54:28.882Z,61.60
2022-09-12T04:56:56.848Z,61.50
2022-09-12T04:59:24.747Z,61.70
2022-09-12T05:01:54.208Z,61.70
2022-09-12T05:04:22.268Z,61.70
2022-09-12T05:06:50.222Z,61.70
2022-09-12T05:09:18.012Z,61.80
2022-09-12T05:12:03.689Z,61.90
2022-09-12T05:14:32.527Z,61.90
2022-09-12T05:17:02.046Z,62.10
2022-09-12T05:19:31.052Z,62.00
2022-09-12T05:21:59.538Z,61.90
2022-09-12T05:24:27.533Z,62.00
2022-09-12T05:26:55.281Z,61.90
2022-09-12T05:29:25.031Z,61.90
2022-09-12T05:31:53.155Z,62.00
2022-09-12T05:34:23.268Z,62.00
2022-09-12T05:36:51.109Z,62.00
2022-09-12T05:39:18.873Z,62.00
2022-09-12T05:41:47.273Z,62.10
2022-09-12T05:44:15.650Z,62.00
2022-09-12T05:46:45.458Z,62.00
2022-09-12T05:49:14.648Z,62.00
2022-09-12T05:51:46.131Z,61.80
2022-09-12T05:54:16.126Z,62.00
2022-09-12T05:56:45.031Z,62.10
2022-09-12T05:59:14.686Z,62.00
2022-09-12T06:01:42.814Z,62.10
2022-09-12T06:04:10.791Z,62.20
2022-09-12T06:06:41.590Z,62.30
2022-09-12T06:09:10.968Z,62.20
2022-09-12T06:11:41.131Z,62.20
2022-09-12T06:14:10.780Z,62.20
2022-09-12T06:16:39.699Z,62.10
2022-09-12T06:19:09.377Z,62.30
2022-09-12T06:21:37.776Z,62.30
2022-09-12T06:24:06.640Z,62.20
2022-09-12T06:26:36.356Z,62.20
2022-09-12T06:29:04.834Z,62.30
2022-09-12T06:31:34.268Z,62.10
2022-09-12T06:34:04.500Z,62.20
2022-09-12T06:36:34.595Z,62.20
2022-09-12T06:39:04.648Z,62.30
2022-09-12T06:41:33.359Z,62.20
2022-09-12T06:44:03.479Z,62.30
2022-09-12T06:46:32.056Z,62.30
2022-09-12T06:49:00.943Z,62.40
2022-09-12T06:51:29.799Z,62.30
2022-09-12T06:53:58.224Z,62.30
2022-09-12T06:56:27.680Z,62.30
2022-09-12T06:58:57.916Z,62.40
2022-09-12T07:01:28.718Z,62.30
2022-09-12T07:03:58.693Z,62.30
2022-09-12T07:06:31.715Z,62.30
2022-09-12T07:08:59.832Z,62.30
2022-09-12T07:11:31.695Z,62.40
2022-09-12T07:14:00.724Z,62.30
2022-09-12T07:16:30.549Z,62.30
2022-09-12T07:19:00.322Z,62.40
2022-09-12T07:21:28.914Z,62.40
2022-09-12T07:23:57.854Z,62.50
2022-09-12T07:26:26.512Z,62.50
2022-09-12T07:29:07.871Z,62.50
2022-09-12T07:31:42.151Z,62.40
2022-09-12T07:34:09.892Z,62.40
2022-09-12T07:36:39.198Z,62.50
2022-09-12T07:39:06.926Z,62.50
2022-09-12T07:41:34.976Z,62.40
2022-09-12T07:44:03.660Z,62.30
2022-09-12T07:46:33.264Z,62.10
2022-09-12T07:49:03.112Z,62.40
2022-09-12T07:51:31.859Z,62.30
2022-09-12T07:54:00.005Z,62.10
2022-09-12T07:56:32.712Z,62.30
2022-09-12T07:59:02.473Z,62.30
2022-09-12T08:01:31.137Z,62.40
2022-09-12T08:04:00.621Z,62.50
2022-09-12T08:06:32.077Z,62.20
2022-09-12T08:09:01.792Z,62.20
2022-09-12T08:11:30.680Z,62.10
2022-09-12T08:13:59.945Z,62.00
2022-09-12T08:16:29.689Z,62.00
2022-09-12T08:18:57.727Z,61.80
2022-09-12T08:21:26.844Z,61.70
2022-09-12T08:23:57.792Z,61.80
2022-09-12T08:26:26.231Z,61.70
2022-09-12T08:28:54.561Z,61.40
2022-09-12T08:31:24.848Z,61.60
2022-09-12T08:33:53.276Z,61.50
2022-09-12T08:36:23.047Z,61.50
2022-09-12T08:38:53.674Z,61.30
2022-09-12T08:41:30.373Z,61.10
2022-09-12T08:44:22.769Z,61.00
2022-09-12T08:47:03.472Z,61.00
2022-09-12T08:49:34.941Z,60.60
2022-09-12T08:52:08.792Z,60.80
2022-09-12T08:54:36.632Z,60.70
2022-09-12T08:57:07.388Z,60.90
2022-09-12T08:59:39.147Z,60.80
2022-09-12T09:02:23.396Z,60.70
2022-09-12T09:04:53.259Z,60.60
2022-09-12T09:07:47.731Z,60.30
2022-09-12T09:10:25.175Z,60.40
2022-09-12T09:13:02.826Z,60.00
2022-09-12T09:15:40.981Z,59.90
2022-09-12T09:18:14.676Z,60.30
2022-09-12T09:20:47.560Z,60.00
2022-09-12T09:23:21.716Z,59.90
2022-09-12T09:25:54.542Z,59.70
2022-09-12T09:28:31.340Z,59.70
2022-09-12T09:30:59.485Z,59.80
2022-09-12T09:33:34.137Z,59.70
2022-09-12T09:36:06.835Z,59.30
2022-09-12T09:38:44.801Z,59.40
2022-09-12T09:41:28.084Z,59.10
2022-09-12T09:43:57.703Z,59.10
2022-09-12T09:46:26.004Z,59.10
2022-09-12T09:48:54.627Z,58.70
2022-09-12T09:51:28.038Z,58.50
2022-09-12T09:54:00.348Z,58.40
2022-09-12T09:56:34.219Z,58.70
2022-09-12T09:59:12.703Z,58.60
2022-09-12T10:01:46.406Z,58.20
2022-09-12T10:04:20.854Z,58.30
2022-09-12T10:06:48.843Z,57.70
2022-09-12T10:09:23.775Z,57.50
2022-09-12T10:11:52.595Z,57.80
2022-09-12T10:14:40.716Z,57.70
2022-09-12T10:17:34.289Z,57.60
2022-09-12T10:20:21.693Z,57.30
2022-09-12T10:22:50.556Z,56.70
2022-09-12T10:25:21.153Z,56.70
2022-09-12T10:27:55.189Z,56.70
2022-09-12T10:30:28.105Z,56.20
2022-09-12T10:33:00.715Z,56.30
2022-09-12T10:35:31.566Z,55.40
2022-09-12T10:38:02.443Z,55.50
2022-09-12T10:40:32.584Z,55.80
2022-09-12T10:43:02.508Z,55.90
2022-09-12T10:45:35.472Z,55.10
2022-09-12T10:48:20.879Z,54.00
2022-09-12T10:50:48.717Z,54.20
2022-09-12T10:53:21.354Z,54.80
2022-09-12T10:56:07.785Z,54.30
2022-09-12T10:58:51.931Z,53.60
2022-09-12T11:01:34.348Z,53.70
2022-09-12T11:04:20.033Z,54.00
2022-09-12T11:07:08.381Z,54.10
2022-09-12T11:09:44.011Z,53.90
2022-09-12T11:12:21.217Z,54.60
2022-09-12T11:15:03.428Z,54.60
2022-09-12T11:17:46.924Z,54.10
2022-09-12T11:20:28.972Z,54.80
2022-09-12T11:23:28.121Z,54.40
2022-09-12T11:26:07.092Z,54.20
2022-09-12T11:28:48.599Z,54.60
2022-09-12T11:31:39.275Z,54.00
2022-09-12T11:34:12.322Z,53.20
2022-09-12T11:36:51.413Z,52.90
2022-09-12T11:39:24.560Z,53.20
2022-09-12T11:41:57.712Z,54.00
2022-09-12T11:44:29.594Z,53.10
2022-09-12T11:46:57.392Z,53.90
2022-09-12T11:49:35.703Z,54.00
2022-09-12T11:52:08.062Z,53.50
2022-09-12T11:54:42.826Z,52.50
2022-09-12T11:57:17.784Z,53.20
2022-09-12T11:59:52.098Z,53.70
2022-09-12T12:02:27.668Z,54.10
2022-09-12T12:05:18.000Z,53.30
2022-09-12T12:07:54.415Z,52.20
2022-09-12T12:10:30.952Z,52.70
2022-09-12T12:13:01.923Z,53.30
2022-09-12T12:15:30.858Z,53.80
2022-09-12T12:18:04.293Z,53.00
2022-09-12T12:20:33.620Z,53.40
2022-09-12T12:23:02.000Z,53.40
2022-09-12T12:25:53.025Z,52.50
2022-09-12T12:28:58.173Z,51.00
2022-09-12T12:31:26.101Z,52.80
2022-09-12T12:34:01.598Z,52.70
2022-09-12T12:36:40.270Z,52.90
2022-09-12T12:39:45.875Z,53.00
2022-09-12T12:43:07.502Z,52.70
2022-09-12T12:46:06.514Z,52.30
2022-09-12T12:49:02.861Z,50.50
2022-09-12T12:51:54.422Z,51.50
2022-09-12T12:54:49.591Z,51.20
2022-09-12T12:57:20.580Z,52.30
2022-09-12T12:59:52.701Z,51.70
2022-09-12T13:02:24.791Z,52.30
2022-09-12T13:04:53.728Z,52.20
2022-09-12T13:07:34.614Z,52.20
2022-09-12T13:10:05.259Z,50.80
2022-09-12T13:12:36.015Z,51.60
2022-09-12T13:15:25.994Z,51.90
2022-09-12T13:17:53.987Z,51.40
2022-09-12T13:20:28.604Z,50.20
2022-09-12T13:22:57.379Z,50.70
2022-09-12T13:25:32.314Z,51.00
2022-09-12T13:28:03.650Z,51.70
2022-09-12T13:30:34.433Z,50.90
2022-09-12T13:33:14.029Z,51.00
2022-09-12T13:35:56.432Z,49.80
2022-09-12T13:38:36.131Z,49.40
2022-09-12T13:41:21.968Z,49.70
2022-09-12T13:43:50.610Z,48.90
2022-09-12T13:46:27.740Z,50.40
2022-09-12T13:48:55.707Z,50.00
2022-09-12T13:51:25.850Z,50.10
2022-09-12T13:53:56.667Z,50.90
2022-09-12T13:56:25.867Z,50.70
2022-09-12T13:58:56.779Z,50.20
2022-09-12T14:01:25.433Z,50.70
2022-09-12T14:04:12.226Z,50.10
2022-09-12T14:06:48.089Z,50.00
2022-09-12T14:09:23.031Z,50.20
2022-09-12T14:11:55.427Z,51.40
2022-09-12T14:14:29.322Z,51.10
2022-09-12T14:16:57.066Z,51.20
2022-09-12T14:19:27.124Z,51.10
2022-09-12T14:21:55.919Z,50.60
2022-09-12T14:24:24.374Z,50.50
2022-09-12T14:26:56.589Z,50.70
2022-09-12T14:29:26.038Z,51.00
2022-09-12T14:32:04.528Z,50.60
2022-09-12T14:34:32.490Z,51.30
2022-09-12T14:37:00.386Z,51.10
2022-09-12T14:39:32.733Z,51.20
2022-09-12T14:42:08.515Z,51.10
2022-09-12T14:44:37.154Z,51.20
2022-09-12T14:47:15.971Z,51.20
2022-09-12T14:49:43.804Z,50.70
2022-09-12T14:52:25.964Z,51.30
2022-09-12T14:54:58.229Z,50.60
2022-09-12T14:57:40.069Z,51.00
2022-09-12T15:00:26.371Z,50.80
2022-09-12T15:02:54.387Z,51.50
2022-09-12T15:05:26.318Z,51.20
2022-09-12T15:07:57.576Z,51.30
2022-09-12T15:10:31.013Z,51.60
2022-09-12T15:13:15.002Z,51.20
2022-09-12T15:15:44.963Z,50.40
2022-09-12T15:18:13.721Z,51.30
2022-09-12T15:20:43.967Z,51.10
2022-09-12T15:23:21.389Z,50.40
2022-09-12T15:25:49.314Z,50.20
2022-09-12T15:28:20.579Z,51.00
2022-09-12T15:30:51.134Z,51.10
2022-09-12T15:33:20.899Z,51.20
2022-09-12T15:35:48.687Z,51.10
2022-09-12T15:38:16.767Z,51.30
2022-09-12T15:40:45.777Z,51.10
2022-09-12T15:43:14.297Z,51.20
2022-09-12T15:45:45.121Z,51.10
2022-09-12T15:48:13.774Z,51.10
2022-09-12T15:50:42.554Z,51.30
2022-09-12T15:53:15.789Z,51.20
2022-09-12T15:55:44.021Z,51.10
2022-09-12T15:58:12.077Z,51.30
2022-09-12T16:00:40.303Z,51.40
2022-09-12T16:03:20.482Z,51.10
2022-09-12T16:05:48.268Z,50.70
2022-09-12T16:08:16.085Z,51.30
2022-09-12T16:10:45.123Z,51.40
2022-09-12T16:13:12.886Z,51.10
2022-09-12T16:15:40.839Z,50.90
2022-09-12T16:18:10.051Z,51.00
2022-09-12T16:20:40.201Z,51.40
2022-09-12T16:23:08.038Z,51.00
2022-09-12T16:25:37.473Z,51.40
2022-09-12T16:28:05.669Z,51.30
2022-09-12T16:30:33.552Z,50.90
2022-09-12T16:33:01.373Z,51.30
2022-09-12T16:35:32.984Z,50.90
2022-09-12T16:38:01.545Z,50.80
2022-09-12T16:40:29.578Z,51.60
2022-09-12T16:42:57.334Z,51.50
2022-09-12T16:45:25.051Z,51.60
2022-09-12T16:47:52.767Z,51.60
2022-09-12T16:50:20.588Z,51.60
2022-09-12T16:52:49.707Z,51.60
2022-09-12T16:55:17.576Z,51.50
2022-09-12T16:57:45.890Z,51.80
2022-09-12T17:00:15.106Z,51.50
2022-09-12T17:02:42.922Z,51.60
2022-09-12T17:05:10.785Z,51.50
2022-09-12T17:07:38.500Z,51.60
2022-09-12T17:10:08.482Z,51.60
2022-09-12T17:12:36.287Z,51.70
2022-09-12T17:15:04.215Z,51.60
2022-09-12T17:17:31.975Z,51.40
2022-09-12T17:19:59.680Z,51.80
2022-09-12T17:22:27.704Z,51.90
2022-09-12T17:24:55.454Z,51.90
2022-09-12T17:27:24.598Z,51.80
2022-09-12T17:29:52.358Z,51.70
2022-09-12T17:32:20.100Z,52.00
2022-09-12T17:34:47.859Z,52.10
2022-09-12T17:37:15.591Z,52.10
2022-09-12T17:39:43.535Z,52.20
2022-09-12T17:42:11.315Z,52.20
2022-09-12T17:44:40.440Z,52.20
2022-09-12T17:47:08.297Z,52.30
2022-09-12T17:49:36.607Z,52.40
2022-09-12T17:52:04.367Z,52.50
2022-09-12T17:54:32.122Z,52.80
2022-09-12T17:56:59.849Z,53.00
2022-09-12T17:59:27.616Z,52.70
2022-09-12T18:02:14.248Z,52.90
2022-09-12T18:04:45.691Z,53.30
2022-09-12T18:07:13.735Z,53.30
2022-09-12T18:09:41.692Z,53.30
2022-09-12T18:12:10.022Z,53.50
2022-09-12T18:14:38.201Z,53.50
2022-09-12T18:17:08.607Z,53.50
2022-09-12T18:19:36.854Z,53.60
2022-09-12T18:22:05.869Z,53.30
2022-09-12T18:24:33.879Z,53.80
2022-09-12T18:27:01.845Z,54.10
2022-09-12T18:29:29.634Z,53.90
2022-09-12T18:31:57.470Z,53.80
2022-09-12T18:34:26.541Z,54.10
2022-09-12T18:36:54.870Z,54.40
2022-09-12T18:39:26.902Z,54.30
2022-09-12T18:41:55.869Z,54.50
2022-09-12T18:44:23.607Z,54.30
2022-09-12T18:46:51.413Z,54.60
2022-09-12T18:49:19.204Z,54.60
2022-09-12T18:51:48.295Z,54.80
2022-09-12T18:54:17.742Z,54.70
2022-09-12T18:56:45.760Z,54.80
2022-09-12T18:59:14.729Z,55.00
2022-09-12T19:01:42.909Z,55.10
2022-09-12T19:04:12.270Z,54.90
2022-09-12T19:06:41.423Z,54.80
2022-09-12T19:09:12.831Z,55.30
2022-09-12T19:11:48.494Z,55.20
2022-09-12T19:14:16.416Z,55.30
2022-09-12T19:16:44.344Z,55.40
2022-09-12T19:19:12.113Z,55.20
2022-09-12T19:21:40.007Z,55.30
2022-09-12T19:24:10.896Z,55.70
2022-09-12T19:26:39.820Z,55.80
2022-09-12T19:29:08.066Z,55.50
2022-09-12T19:31:36.140Z,55.60
2022-09-12T19:34:05.729Z,55.80
2022-09-12T19:36:45.539Z,55.80
2022-09-12T19:39:16.351Z,55.90
2022-09-12T19:41:44.658Z,56.30
2022-09-12T19:44:12.627Z,56.00
2022-09-12T19:46:40.575Z,55.90
2022-09-12T19:49:08.877Z,55.90
2022-09-12T19:51:36.702Z,56.00
2022-09-12T19:54:04.586Z,55.80
2022-09-12T19:56:33.666Z,56.10
2022-09-12T19:59:01.454Z,56.30
2022-09-12T20:01:29.381Z,56.20
2022-09-12T20:03:57.820Z,55.90
2022-09-12T20:06:26.078Z,56.10
2022-09-12T20:08:53.922Z,56.20
2022-09-12T20:11:23.322Z,56.10
2022-09-12T20:13:52.944Z,56.30
2022-09-12T20:16:23.234Z,56.80
2022-09-12T20:18:54.905Z,56.90
2022-09-12T20:21:25.151Z,56.90
2022-09-12T20:23:53.113Z,56.80
2022-09-12T20:26:23.366Z,56.90
2022-09-12T20:28:52.422Z,56.80
2022-09-12T20:31:20.172Z,56.90
2022-09-12T20:33:51.733Z,57.20
2022-09-12T20:36:21.406Z,57.20
2022-09-12T20:38:50.436Z,57.30
2022-09-12T20:41:19.735Z,57.20
2022-09-12T20:43:52.196Z,57.10
2022-09-12T20:46:22.071Z,57.20
2022-09-12T20:48:50.468Z,57.40
2022-09-12T20:51:18.868Z,57.50
2022-09-12T20:53:46.704Z,57.50
2022-09-12T20:56:14.870Z,57.60
2022-09-12T20:58:44.325Z,57.70
2022-09-12T21:01:15.998Z,57.70
2022-09-12T21:03:44.819Z,57.70
2022-09-12T21:06:14.211Z,57.80
2022-09-12T21:08:42.028Z,58.00
2022-09-12T21:11:10.468Z,58.00
2022-09-12T21:13:38.721Z,57.90
2022-09-12T21:16:08.594Z,58.00
2022-09-12T21:18:38.093Z,57.90
2022-09-12T21:21:06.137Z,58.00
2022-09-12T21:23:35.447Z,58.10
2022-09-12T21:26:04.231Z,58.10
2022-09-12T21:28:32.519Z,58.00
2022-09-12T21:31:00.801Z,58.30
2022-09-12T21:33:28.772Z,58.00
2022-09-12T21:36:02.548Z,58.20
2022-09-12T21:38:30.887Z,58.40
2022-09-12T21:41:05.584Z,58.50
2022-09-12T21:43:33.413Z,59.00
2022-09-12T21:46:01.693Z,59.00
2022-09-12T21:48:29.614Z,59.00
2022-09-12T21:50:59.113Z,58.90
2022-09-12T21:53:27.204Z,59.20
2022-09-12T21:55:54.996Z,59.10
2022-09-12T21:58:22.764Z,59.10
2022-09-12T22:00:51.125Z,59.20
2022-09-12T22:03:19.008Z,59.40
2022-09-12T22:05:51.312Z,59.20
2022-09-12T22:08:20.492Z,59.20
2022-09-12T22:10:48.260Z,59.20
2022-09-12T22:13:16.042Z,59.30
2022-09-12T22:15:45.351Z,59.40
2022-09-12T22:18:13.149Z,59.40
2022-09-12T22:20:40.911Z,59.40
2022-09-12T22:23:26.421Z,59.40
2022-09-12T22:25:56.676Z,59.30
2022-09-12T22:28:25.040Z,59.30
2022-09-12T22:30:54.182Z,59.30
2022-09-12T22:33:22.128Z,59.30
2022-09-12T22:35:49.921Z,59.40
2022-09-12T22:38:17.868Z,59.60
2022-09-12T22:40:45.625Z,59.80
2022-09-12T22:43:14.779Z,59.80
2022-09-12T22:45:42.839Z,59.80
2022-09-12T22:48:10.714Z,59.60
2022-09-12T22:50:38.511Z,59.50
2022-09-12T22:53:06.308Z,59.60
2022-09-12T22:55:34.060Z,59.70
2022-09-12T22:58:03.539Z,59.50
2022-09-12T23:00:32.749Z,59.70
2022-09-12T23:03:01.517Z,60.00
2022-09-12T23:05:29.437Z,59.80
2022-09-12T23:07:57.181Z,59.80
2022-09-12T23:10:25.957Z,59.90
2022-09-12T23:12:53.788Z,60.00
2022-09-12T23:15:21.663Z,60.00
2022-09-12T23:17:50.849Z,60.10
2022-09-12T23:20:18.673Z,60.10
2022-09-12T23:22:46.486Z,60.20
2022-09-12T23:25:14.844Z,60.20
2022-09-12T23:27:43.233Z,60.20
2022-09-12T23:30:12.133Z,60.40
2022-09-12T23:32:39.920Z,60.30
2022-09-12T23:35:09.365Z,60.30
2022-09-12T23:37:37.160Z,60.50
2022-09-12T23:40:05.589Z,60.40
2022-09-12T23:42:33.451Z,60.50
2022-09-12T23:45:01.256Z,60.50
2022-09-12T23:47:29.022Z,60.50
2022-09-12T23:49:56.831Z,60.50
2022-09-12T23:52:26.043Z,60.60
2022-09-12T23:54:53.813Z,60.60
2022-09-12T23:57:22.017Z,60.50
2022-09-12T23:59:49.748Z,60.40
